createdAt,value
2017-05-30T00:00:11.336Z,21.44
2017-05-30T00:01:26.332Z,21.43
2017-05-30T00:02:11.695Z,21.42
2017-05-30T00:03:11.722Z,21.49
2017-05-30T00:04:11.797Z,21.46
2017-05-30T00:05:11.775Z,21.37
2017-05-30T00:06:11.801Z,21.43
2017-05-30T00:08:11.855Z,21.24
2017-05-30T00:09:11.880Z,21.34
2017-05-30T00:10:11.604Z,21.29
2017-05-30T00:11:11.934Z,21.21
2017-05-30T00:12:11.964Z,21.29
2017-05-30T00:13:11.986Z,21.19
2017-05-30T00:14:12.023Z,21.14
2017-05-30T00:15:12.042Z,21.06
2017-05-30T00:16:12.070Z,20.97
2017-05-30T00:17:26.712Z,20.92
2017-05-30T00:18:12.122Z,20.85
2017-05-30T00:19:11.844Z,20.92
2017-05-30T00:20:12.180Z,20.8
2017-05-30T00:21:12.202Z,20.82
2017-05-30T00:22:11.926Z,20.79
2017-05-30T00:23:12.256Z,20.8
2017-05-30T00:24:11.981Z,20.77
2017-05-30T00:27:12.365Z,20.82
2017-05-30T00:28:11.780Z,20.82
2017-05-30T00:29:27.032Z,20.67
2017-05-30T00:30:12.141Z,20.74
2017-05-30T00:31:12.165Z,20.7
2017-05-30T00:32:12.191Z,20.7
2017-05-30T00:33:27.137Z,20.59
2017-05-30T00:34:12.547Z,20.66
2017-05-30T00:35:12.271Z,20.64
2017-05-30T00:36:12.604Z,20.59
2017-05-30T00:37:12.322Z,20.55
2017-05-30T00:39:12.687Z,20.51
2017-05-30T00:41:12.737Z,20.47
2017-05-30T00:42:12.458Z,20.41
2017-05-30T00:43:12.790Z,20.51
2017-05-30T00:44:12.812Z,20.55
2017-05-30T00:45:27.152Z,20.52
2017-05-30T00:46:12.566Z,20.5
2017-05-30T00:47:12.286Z,20.5
2017-05-30T00:48:12.927Z,20.39
2017-05-30T00:49:27.563Z,20.41
2017-05-30T00:50:12.364Z,20.41
2017-05-30T00:51:12.695Z,20.38
2017-05-30T00:52:13.029Z,20.38
2017-05-30T00:53:12.444Z,20.42
2017-05-30T00:54:13.081Z,20.38
2017-05-30T00:55:12.800Z,20.24
2017-05-30T00:56:13.128Z,20.26
2017-05-30T00:57:13.154Z,20.24
2017-05-30T00:58:13.185Z,20.32
2017-05-30T00:59:13.210Z,20.18
2017-05-30T01:00:13.234Z,20.31
2017-05-30T01:01:12.964Z,20.16
2017-05-30T01:02:27.905Z,20.23
2017-05-30T01:03:13.011Z,20.2
2017-05-30T01:04:27.959Z,20.08
2017-05-30T01:05:12.767Z,20.21
2017-05-30T01:06:13.394Z,20.1
2017-05-30T01:07:13.468Z,20.13
2017-05-30T01:08:13.447Z,20.16
2017-05-30T01:09:13.477Z,20.14
2017-05-30T01:10:13.498Z,20.1
2017-05-30T01:11:13.276Z,20.13
2017-05-30T01:12:13.555Z,20.13
2017-05-30T01:13:13.583Z,20.06
2017-05-30T01:14:13.608Z,20.1
2017-05-30T01:15:13.329Z,20.05
2017-05-30T01:16:28.276Z,20.03
2017-05-30T01:17:13.685Z,19.96
2017-05-30T01:18:13.711Z,19.98
2017-05-30T01:19:13.741Z,20.02
2017-05-30T01:20:13.461Z,20.01
2017-05-30T01:21:13.794Z,20.02
2017-05-30T01:22:13.817Z,19.98
2017-05-30T01:23:13.842Z,19.99
2017-05-30T01:24:13.923Z,19.98
2017-05-30T01:25:13.895Z,19.98
2017-05-30T01:26:13.921Z,19.96
2017-05-30T01:27:13.947Z,19.88
2017-05-30T01:28:13.973Z,19.88
2017-05-30T01:29:14.002Z,19.98
2017-05-30T01:30:13.725Z,19.99
2017-05-30T01:31:14.059Z,20.02
2017-05-30T01:32:14.080Z,19.99
2017-05-30T01:33:14.106Z,20.03
2017-05-30T01:34:14.134Z,20.05
2017-05-30T01:35:14.157Z,19.99
2017-05-30T01:36:28.807Z,20.01
2017-05-30T01:37:14.215Z,20.01
2017-05-30T01:38:14.237Z,19.94
2017-05-30T01:39:14.264Z,19.91
2017-05-30T01:40:14.287Z,19.84
2017-05-30T01:41:14.364Z,19.74
2017-05-30T01:42:14.340Z,19.77
2017-05-30T01:43:14.366Z,19.8
2017-05-30T01:44:14.397Z,19.84
2017-05-30T01:45:14.424Z,19.83
2017-05-30T01:47:14.475Z,19.73
2017-05-30T01:48:14.497Z,19.77
2017-05-30T01:49:29.141Z,19.78
2017-05-30T01:50:29.167Z,19.8
2017-05-30T01:51:14.626Z,19.78
2017-05-30T01:52:29.224Z,19.74
2017-05-30T01:54:14.656Z,19.58
2017-05-30T01:55:14.682Z,19.74
2017-05-30T01:56:14.708Z,19.78
2017-05-30T01:57:14.745Z,19.77
2017-05-30T01:59:14.486Z,19.8
2017-05-30T02:00:14.518Z,19.74
2017-05-30T02:01:14.841Z,19.83
2017-05-30T02:02:14.563Z,19.76
2017-05-30T02:03:29.510Z,19.71
2017-05-30T02:04:14.921Z,19.61
2017-05-30T02:05:14.947Z,19.69
2017-05-30T02:06:14.665Z,19.65
2017-05-30T02:07:14.996Z,19.59
2017-05-30T02:08:29.638Z,19.63
2017-05-30T02:09:15.052Z,19.66
2017-05-30T02:10:15.075Z,19.62
2017-05-30T02:11:14.845Z,19.59
2017-05-30T02:12:15.126Z,19.55
2017-05-30T02:13:15.155Z,19.54
2017-05-30T02:14:14.877Z,19.44
2017-05-30T02:15:14.903Z,19.47
2017-05-30T02:17:14.952Z,19.41
2017-05-30T02:18:14.981Z,19.47
2017-05-30T02:19:14.702Z,19.41
2017-05-30T02:20:15.032Z,19.47
2017-05-30T02:21:15.366Z,19.43
2017-05-30T02:22:15.086Z,19.4
2017-05-30T02:23:15.413Z,19.51
2017-05-30T02:24:30.061Z,19.48
2017-05-30T02:25:15.163Z,19.5
2017-05-30T02:26:15.188Z,19.5
2017-05-30T02:27:15.517Z,19.5
2017-05-30T02:28:15.546Z,19.46
2017-05-30T02:31:15.323Z,19.41
2017-05-30T02:32:15.648Z,19.4
2017-05-30T02:33:15.675Z,19.39
2017-05-30T02:34:15.700Z,19.31
2017-05-30T02:35:15.422Z,19.26
2017-05-30T02:36:15.808Z,19.32
2017-05-30T02:37:15.784Z,19.28
2017-05-30T02:38:15.805Z,19.22
2017-05-30T02:39:30.451Z,19.23
2017-05-30T02:40:15.859Z,19.29
2017-05-30T02:41:15.884Z,19.22
2017-05-30T02:42:15.607Z,19.19
2017-05-30T02:43:15.935Z,19.18
2017-05-30T02:44:15.964Z,19.19
2017-05-30T02:45:15.685Z,19.23
2017-05-30T02:47:16.041Z,19.25
2017-05-30T02:48:16.066Z,19.16
2017-05-30T02:49:16.093Z,19.18
2017-05-30T02:50:16.119Z,19.06
2017-05-30T02:51:15.893Z,19.07
2017-05-30T02:52:15.875Z,19.07
2017-05-30T02:53:16.198Z,19.02
2017-05-30T02:54:16.221Z,19.11
2017-05-30T02:55:16.247Z,19.1
2017-05-30T02:56:16.275Z,19.16
2017-05-30T02:57:16.300Z,19.13
2017-05-30T02:58:16.324Z,19.18
2017-05-30T02:59:16.047Z,19.13
2017-05-30T03:00:16.073Z,19.22
2017-05-30T03:01:16.100Z,19.13
2017-05-30T03:02:16.130Z,19.16
2017-05-30T03:04:16.180Z,19.14
2017-05-30T03:05:16.204Z,19.08
2017-05-30T03:06:16.535Z,19.11
2017-05-30T03:07:31.177Z,19.16
2017-05-30T03:08:16.587Z,19.19
2017-05-30T03:09:16.309Z,19.21
2017-05-30T03:10:16.635Z,19.26
2017-05-30T03:11:31.283Z,19.18
2017-05-30T03:12:16.690Z,19.29
2017-05-30T03:13:16.716Z,19.25
2017-05-30T03:14:16.740Z,19.22
2017-05-30T03:15:16.769Z,19.16
2017-05-30T03:16:16.488Z,19.32
2017-05-30T03:19:16.876Z,19.29
2017-05-30T03:20:16.905Z,19.32
2017-05-30T03:21:16.927Z,19.33
2017-05-30T03:22:16.644Z,19.32
2017-05-30T03:23:31.592Z,19.32
2017-05-30T03:24:17.001Z,19.36
2017-05-30T03:25:16.725Z,19.36
2017-05-30T03:27:31.397Z,19.44
2017-05-30T03:28:16.856Z,19.44
2017-05-30T03:29:16.879Z,19.47
2017-05-30T03:30:16.916Z,19.43
2017-05-30T03:31:16.881Z,19.37
2017-05-30T03:32:16.904Z,19.4
2017-05-30T03:33:16.982Z,19.36
2017-05-30T03:34:17.261Z,19.4
2017-05-30T03:35:16.985Z,19.47
2017-05-30T03:37:16.732Z,19.59
2017-05-30T03:38:31.982Z,19.54
2017-05-30T03:39:32.008Z,19.61
2017-05-30T03:40:32.033Z,19.59
2017-05-30T03:41:17.442Z,19.56
2017-05-30T03:42:17.469Z,19.58
2017-05-30T03:43:32.110Z,19.65
2017-05-30T03:44:17.524Z,19.59
2017-05-30T03:45:17.555Z,19.56
2017-05-30T03:46:17.271Z,19.77
2017-05-30T03:47:17.600Z,19.77
2017-05-30T03:48:17.627Z,19.78
2017-05-30T03:50:17.077Z,19.77
2017-05-30T03:52:17.731Z,19.87
2017-05-30T03:53:17.757Z,19.8
2017-05-30T03:54:17.785Z,19.78
2017-05-30T03:55:32.427Z,19.95
2017-05-30T03:56:17.836Z,19.88
2017-05-30T03:57:17.560Z,19.83
2017-05-30T03:58:17.584Z,19.98
2017-05-30T03:59:32.532Z,19.99
2017-05-30T04:01:18.015Z,20.01
2017-05-30T04:02:17.993Z,20.01
2017-05-30T04:03:17.713Z,20.03
2017-05-30T04:04:18.045Z,20.08
2017-05-30T04:05:18.069Z,20.11
2017-05-30T04:06:18.104Z,20.1
2017-05-30T04:07:17.816Z,20.17
2017-05-30T04:08:18.150Z,20.28
2017-05-30T04:09:17.867Z,20.51
2017-05-30T04:10:32.820Z,21.09
2017-05-30T04:11:32.894Z,21.62
2017-05-30T04:12:18.254Z,22.14
2017-05-30T04:13:18.281Z,22.46
2017-05-30T04:14:32.927Z,22.73
2017-05-30T04:15:18.030Z,22.85
2017-05-30T04:16:18.361Z,22.72
2017-05-30T04:17:18.086Z,22.76
2017-05-30T04:18:18.116Z,22.57
2017-05-30T04:19:18.444Z,22.42
2017-05-30T04:20:18.471Z,22.3
2017-05-30T04:21:18.496Z,22.07
2017-05-30T04:22:18.525Z,21.98
2017-05-30T04:23:18.553Z,21.96
2017-05-30T04:25:18.607Z,22.07
2017-05-30T04:26:18.330Z,22.1
2017-05-30T04:27:18.357Z,22.49
2017-05-30T04:28:18.389Z,22.67
2017-05-30T04:29:18.413Z,22.58
2017-05-30T04:30:18.442Z,22.49
2017-05-30T04:31:18.469Z,22.3
2017-05-30T04:32:18.497Z,22.22
2017-05-30T04:33:18.578Z,22.12
2017-05-30T04:34:18.855Z,22.51
2017-05-30T04:35:18.579Z,23.02
2017-05-30T04:36:18.606Z,23.72
2017-05-30T04:37:18.633Z,24.3
2017-05-30T04:39:19.000Z,24.47
2017-05-30T04:40:19.021Z,24.45
2017-05-30T04:41:19.048Z,24.39
2017-05-30T04:42:19.132Z,24.43
2017-05-30T04:43:18.801Z,24.28
2017-05-30T04:44:19.132Z,24.08
2017-05-30T04:45:19.168Z,23.85
2017-05-30T04:46:33.809Z,23.54
2017-05-30T04:47:19.271Z,23.27
2017-05-30T04:48:19.249Z,23.16
2017-05-30T04:49:18.672Z,23.04
2017-05-30T04:50:19.002Z,23.22
2017-05-30T04:51:19.031Z,23.79
2017-05-30T04:52:19.110Z,24.35
2017-05-30T04:53:19.391Z,25.05
2017-05-30T04:54:19.422Z,25.64
2017-05-30T04:55:19.449Z,25.9
2017-05-30T04:56:19.179Z,25.69
2017-05-30T04:57:19.506Z,25.39
2017-05-30T04:58:19.534Z,25.8
2017-05-30T04:59:19.261Z,26.65
2017-05-30T05:00:19.595Z,27.21
2017-05-30T05:01:19.628Z,27.9
2017-05-30T05:02:34.276Z,28.07
2017-05-30T05:03:19.737Z,28.15
2017-05-30T05:04:19.717Z,28.59
2017-05-30T05:05:19.747Z,28.24
2017-05-30T05:06:19.777Z,28.44
2017-05-30T05:07:19.807Z,28.68
2017-05-30T05:08:19.839Z,28.64
2017-05-30T05:09:19.876Z,28.36
2017-05-30T05:10:19.912Z,28.03
2017-05-30T05:12:20.018Z,26.47
2017-05-30T05:13:20.001Z,25.97
2017-05-30T05:14:20.030Z,25.69
2017-05-30T05:15:20.064Z,25.46
2017-05-30T05:16:20.095Z,25.45
2017-05-30T05:17:20.126Z,25.17
2017-05-30T05:18:34.778Z,24.99
2017-05-30T05:19:20.190Z,24.99
2017-05-30T05:20:20.222Z,24.71
2017-05-30T05:21:20.254Z,24.46
2017-05-30T05:22:20.279Z,24.25
2017-05-30T05:24:20.340Z,24.53
2017-05-30T05:25:20.371Z,25.46
2017-05-30T05:26:20.400Z,26.07
2017-05-30T05:27:20.130Z,26.89
2017-05-30T05:28:20.461Z,27.44
2017-05-30T05:29:35.114Z,28.17
2017-05-30T05:30:35.142Z,28.54
2017-05-30T05:31:20.557Z,28.74
2017-05-30T05:33:20.625Z,29.52
2017-05-30T05:34:35.269Z,30.02
2017-05-30T05:35:20.380Z,30.27
2017-05-30T05:36:20.418Z,30.34
2017-05-30T05:37:20.449Z,30.47
2017-05-30T05:38:20.783Z,30.83
2017-05-30T05:39:20.511Z,31.21
2017-05-30T05:40:20.593Z,31.53
2017-05-30T05:41:20.881Z,31.76
2017-05-30T05:43:20.949Z,32.3
2017-05-30T05:44:20.981Z,32.57
2017-05-30T05:45:21.018Z,32.59
2017-05-30T05:46:20.749Z,32.75
2017-05-30T05:47:35.706Z,32.22
2017-05-30T05:48:20.819Z,32.44
2017-05-30T05:49:35.775Z,32.23
2017-05-30T05:50:21.190Z,32.35
2017-05-30T05:51:20.923Z,32.35
2017-05-30T05:52:20.959Z,32.26
2017-05-30T05:53:20.996Z,32.77
2017-05-30T05:54:21.332Z,33.59
2017-05-30T05:55:21.366Z,33.94
2017-05-30T05:56:21.401Z,34.46
2017-05-30T05:58:21.474Z,34.06
2017-05-30T05:59:21.510Z,34.02
2017-05-30T06:00:21.551Z,33.97
2017-05-30T06:01:36.202Z,34.19
2017-05-30T06:02:21.619Z,34.37
2017-05-30T06:03:21.353Z,34.59
2017-05-30T06:04:21.696Z,34.77
2017-05-30T06:05:21.727Z,34.94
2017-05-30T06:06:21.775Z,34.96
2017-05-30T06:07:21.801Z,34.78
2017-05-30T06:08:21.835Z,34.81
2017-05-30T06:09:21.880Z,35.02
2017-05-30T06:10:21.910Z,35.02
2017-05-30T06:13:21.714Z,34.89
2017-05-30T06:14:22.062Z,35.36
2017-05-30T06:15:21.791Z,35.31
2017-05-30T06:16:22.131Z,35.06
2017-05-30T06:17:36.482Z,35.29
2017-05-30T06:18:22.204Z,35.11
2017-05-30T06:19:22.242Z,35.03
2017-05-30T06:20:22.278Z,34.88
2017-05-30T06:21:36.934Z,34.89
2017-05-30T06:22:22.353Z,34.85
2017-05-30T06:23:22.089Z,35.38
2017-05-30T06:24:22.425Z,35.22
2017-05-30T06:25:22.461Z,35.33
2017-05-30T06:26:22.501Z,35.59
2017-05-30T06:28:22.573Z,35.4
2017-05-30T06:29:22.614Z,35.41
2017-05-30T06:30:22.349Z,35.56
2017-05-30T06:32:22.974Z,35.53
2017-05-30T06:33:22.766Z,35.82
2017-05-30T06:34:22.504Z,35.92
2017-05-30T06:35:22.838Z,35.81
2017-05-30T06:37:37.534Z,35.53
2017-05-30T06:38:22.955Z,35.47
2017-05-30T06:39:22.989Z,35.58
2017-05-30T06:40:23.026Z,35.23
2017-05-30T06:41:22.763Z,35.21
2017-05-30T06:42:23.101Z,35.1
2017-05-30T06:43:23.139Z,35.41
2017-05-30T06:44:23.177Z,35.43
2017-05-30T06:47:23.294Z,35.66
2017-05-30T06:48:23.331Z,35.96
2017-05-30T06:49:37.989Z,36.49
2017-05-30T06:50:23.410Z,35.89
2017-05-30T06:51:23.142Z,36.28
2017-05-30T06:52:23.178Z,36.54
2017-05-30T06:53:38.143Z,36.85
2017-05-30T06:54:23.256Z,36.94
2017-05-30T06:55:23.292Z,36.73
2017-05-30T06:56:23.634Z,36.56
2017-05-30T06:57:23.672Z,37.22
2017-05-30T06:58:23.407Z,37.51
2017-05-30T07:00:23.791Z,37.51
2017-05-30T07:02:23.864Z,37.2
2017-05-30T07:03:23.903Z,36.91
2017-05-30T07:04:38.613Z,36.59
2017-05-30T07:05:24.034Z,36.49
2017-05-30T07:06:24.021Z,36.99
2017-05-30T07:07:24.058Z,37.51
2017-05-30T07:08:24.093Z,38.2
2017-05-30T07:09:38.803Z,38.78
2017-05-30T07:10:24.173Z,38.28
2017-05-30T07:11:24.209Z,37.57
2017-05-30T07:12:24.249Z,37.28
2017-05-30T07:13:24.285Z,37.17
2017-05-30T07:14:24.323Z,37.43
2017-05-30T07:15:24.359Z,37.62
2017-05-30T07:17:24.139Z,37.37
2017-05-30T07:18:24.174Z,37.72
2017-05-30T07:19:39.135Z,38.22
2017-05-30T07:20:24.553Z,38.75
2017-05-30T07:21:24.590Z,38.07
2017-05-30T07:22:39.248Z,38.23
2017-05-30T07:23:24.665Z,38.12
2017-05-30T07:24:39.329Z,37.93
2017-05-30T07:25:24.756Z,38.59
2017-05-30T07:26:24.783Z,38.65
2017-05-30T07:27:24.824Z,39.22
2017-05-30T07:28:24.864Z,39.52
2017-05-30T07:29:24.901Z,39.84
2017-05-30T07:30:24.942Z,40.13
2017-05-30T07:31:24.990Z,39.4
2017-05-30T07:33:25.057Z,38.59
2017-05-30T07:34:25.163Z,38.87
2017-05-30T07:35:25.135Z,39.26
2017-05-30T07:36:25.175Z,39.33
2017-05-30T07:37:25.212Z,38.54
2017-05-30T07:38:25.251Z,38.53
2017-05-30T07:39:25.292Z,38.38
2017-05-30T07:40:25.333Z,37.82
2017-05-30T07:41:25.066Z,37.34
2017-05-30T07:42:25.411Z,37.12
2017-05-30T07:43:25.448Z,36.91
2017-05-30T07:44:25.483Z,36.32
2017-05-30T07:45:25.523Z,36.5
2017-05-30T07:46:25.564Z,36.8
2017-05-30T07:47:25.602Z,37.46
2017-05-30T07:48:25.641Z,38.06
2017-05-30T07:49:25.677Z,38
2017-05-30T07:50:40.336Z,38.81
2017-05-30T07:51:25.756Z,39.16
2017-05-30T07:52:25.792Z,39.4
2017-05-30T07:53:25.827Z,39.81
2017-05-30T07:54:25.867Z,39.73
2017-05-30T07:55:25.904Z,39.79
2017-05-30T07:56:40.562Z,39.55
2017-05-30T07:57:25.680Z,39.67
2017-05-30T07:58:26.022Z,39.51
2017-05-30T07:59:25.758Z,39.73
2017-05-30T08:00:26.097Z,39.23
2017-05-30T08:01:26.135Z,39.6
2017-05-30T08:02:26.172Z,39.72
2017-05-30T08:04:26.260Z,39.38
2017-05-30T08:05:25.987Z,39.36
2017-05-30T08:06:26.328Z,38.72
2017-05-30T08:08:26.404Z,38.34
2017-05-30T08:09:41.063Z,37.86
2017-05-30T08:10:41.101Z,37.51
2017-05-30T08:11:26.521Z,37.22
2017-05-30T08:12:41.178Z,37.51
2017-05-30T08:13:26.598Z,37.84
2017-05-30T08:14:26.636Z,38.35
2017-05-30T08:15:26.670Z,38.9
2017-05-30T08:16:26.710Z,39.26
2017-05-30T08:17:26.445Z,39.54
2017-05-30T08:18:26.786Z,39.09
2017-05-30T08:19:26.822Z,39.48
2017-05-30T08:21:26.904Z,40.23
2017-05-30T08:23:26.673Z,40.16
2017-05-30T08:24:27.019Z,40.6
2017-05-30T08:25:26.753Z,41.07
2017-05-30T08:26:26.790Z,41.02
2017-05-30T08:27:27.132Z,41.25
2017-05-30T08:28:41.795Z,41.41
2017-05-30T08:29:26.904Z,41.08
2017-05-30T08:30:26.638Z,41.17
2017-05-30T08:31:26.982Z,41.41
2017-05-30T08:33:27.060Z,41.62
2017-05-30T08:34:27.142Z,41.3
2017-05-30T08:37:27.216Z,40.06
2017-05-30T08:38:27.557Z,39.82
2017-05-30T08:39:27.600Z,39.35
2017-05-30T08:40:27.636Z,39.09
2017-05-30T08:41:27.371Z,38.83
2017-05-30T08:42:27.409Z,38.41
2017-05-30T08:43:27.752Z,38.37
2017-05-30T08:44:42.409Z,38.42
2017-05-30T08:45:27.825Z,38.41
2017-05-30T08:46:27.865Z,38.79
2017-05-30T08:47:27.904Z,38.83
2017-05-30T08:49:27.988Z,39.45
2017-05-30T08:50:28.015Z,39.84
2017-05-30T08:51:28.055Z,40.2
2017-05-30T08:52:28.093Z,40.23
2017-05-30T08:53:28.135Z,40.72
2017-05-30T08:55:28.208Z,40.94
2017-05-30T08:56:42.867Z,40.73
2017-05-30T08:57:28.285Z,40.89
2017-05-30T08:58:28.328Z,40.99
2017-05-30T08:59:42.984Z,41.66
2017-05-30T09:01:28.438Z,41.07
2017-05-30T09:03:28.515Z,41.06
2017-05-30T09:04:28.555Z,40.46
2017-05-30T09:05:28.593Z,40.62
2017-05-30T09:06:28.632Z,40.2
2017-05-30T09:07:28.367Z,40.41
2017-05-30T09:08:28.714Z,40.03
2017-05-30T09:09:43.367Z,40.26
2017-05-30T09:10:28.781Z,40.29
2017-05-30T09:11:43.442Z,40.89
2017-05-30T09:12:28.864Z,41.14
2017-05-30T09:13:28.598Z,40.94
2017-05-30T09:14:28.646Z,40.55
2017-05-30T09:15:28.975Z,41.08
2017-05-30T09:16:29.015Z,41.29
2017-05-30T09:17:28.749Z,41.25
2017-05-30T09:18:29.091Z,41.25
2017-05-30T09:19:28.823Z,41.13
2017-05-30T09:20:28.863Z,41.45
2017-05-30T09:21:28.902Z,41.63
2017-05-30T09:22:29.244Z,41.8
2017-05-30T09:24:29.327Z,41.52
2017-05-30T09:25:29.359Z,41.48
2017-05-30T09:26:43.716Z,40.76
2017-05-30T09:27:29.132Z,40.92
2017-05-30T09:28:29.478Z,40.88
2017-05-30T09:29:29.532Z,40.35
2017-05-30T09:30:29.561Z,39.75
2017-05-30T09:31:44.213Z,39.67
2017-05-30T09:32:29.629Z,39.7
2017-05-30T09:33:29.363Z,39.54
2017-05-30T09:34:29.095Z,39.57
2017-05-30T09:35:29.437Z,40.04
2017-05-30T09:36:29.475Z,39.79
2017-05-30T09:37:29.815Z,39.77
2017-05-30T09:38:29.856Z,39.81
2017-05-30T09:39:29.590Z,40.41
2017-05-30T09:40:29.928Z,40.19
2017-05-30T09:41:29.662Z,39.51
2017-05-30T09:42:29.700Z,39.38
2017-05-30T09:43:44.662Z,39.54
2017-05-30T09:44:44.698Z,39.77
2017-05-30T09:45:29.814Z,39.84
2017-05-30T09:46:29.851Z,39.89
2017-05-30T09:47:44.816Z,39.47
2017-05-30T09:48:29.923Z,39.03
2017-05-30T09:49:29.963Z,38.44
2017-05-30T09:50:30.005Z,38.49
2017-05-30T09:51:30.036Z,38.66
2017-05-30T09:52:30.070Z,38.28
2017-05-30T09:53:30.418Z,38.2
2017-05-30T09:54:30.449Z,38.11
2017-05-30T09:55:30.489Z,37.86
2017-05-30T09:56:30.534Z,37.84
2017-05-30T09:57:30.562Z,38.2
2017-05-30T09:58:30.598Z,38.71
2017-05-30T09:59:30.632Z,38.81
2017-05-30T10:00:45.289Z,39.17
2017-05-30T10:01:30.708Z,39.28
2017-05-30T10:02:30.747Z,39.64
2017-05-30T10:03:45.400Z,40.03
2017-05-30T10:04:30.512Z,40.34
2017-05-30T10:05:30.548Z,40.46
2017-05-30T10:06:30.891Z,40.23
2017-05-30T10:07:30.923Z,39.75
2017-05-30T10:08:30.961Z,39.09
2017-05-30T10:09:31.006Z,38.38
2017-05-30T10:10:31.035Z,37.85
2017-05-30T10:11:31.071Z,36.76
2017-05-30T10:12:31.111Z,35.78
2017-05-30T10:13:31.144Z,35.5
2017-05-30T10:14:31.179Z,35.34
2017-05-30T10:15:31.219Z,35.09
2017-05-30T10:16:31.254Z,34.47
2017-05-30T10:17:31.291Z,34.32
2017-05-30T10:18:31.327Z,33.68
2017-05-30T10:19:46.030Z,32.78
2017-05-30T10:20:31.395Z,32.44
2017-05-30T10:21:31.432Z,31.62
2017-05-30T10:22:31.468Z,31.06
2017-05-30T10:23:31.500Z,30.53
2017-05-30T10:24:31.542Z,29.87
2017-05-30T10:25:31.578Z,29.6
2017-05-30T10:26:31.608Z,28.78
2017-05-30T10:28:31.678Z,26.29
2017-05-30T10:29:31.711Z,24.8
2017-05-30T10:30:31.445Z,23.57
2017-05-30T10:31:31.481Z,22.72
2017-05-30T10:32:31.510Z,22.47
2017-05-30T10:33:31.545Z,22.94
2017-05-30T10:34:46.503Z,23.43
2017-05-30T10:35:31.917Z,23.63
2017-05-30T10:36:31.650Z,23.73
2017-05-30T10:37:31.675Z,23.83
2017-05-30T10:38:32.021Z,24.18
2017-05-30T10:39:31.744Z,24.43
2017-05-30T10:40:32.127Z,24.62
2017-05-30T10:41:32.109Z,25.03
2017-05-30T10:43:31.869Z,25.14
2017-05-30T10:45:32.235Z,25.4
2017-05-30T10:46:32.276Z,25.46
2017-05-30T10:47:32.301Z,25.33
2017-05-30T10:48:32.330Z,25.25
2017-05-30T10:49:32.362Z,25.06
2017-05-30T10:50:32.394Z,24.77
2017-05-30T10:51:32.426Z,24.87
2017-05-30T10:52:32.456Z,24.95
2017-05-30T10:53:32.186Z,25.02
2017-05-30T10:54:32.519Z,24.88
2017-05-30T10:55:32.254Z,24.84
2017-05-30T10:56:32.584Z,24.76
2017-05-30T10:57:32.613Z,24.55
2017-05-30T10:58:32.338Z,24.4
2017-05-30T10:59:32.371Z,24.43
2017-05-30T11:00:32.407Z,24.6
2017-05-30T11:01:47.356Z,24.76
2017-05-30T11:02:32.159Z,24.8
2017-05-30T11:03:47.414Z,24.8
2017-05-30T11:04:32.527Z,24.78
2017-05-30T11:05:32.859Z,24.61
2017-05-30T11:06:47.506Z,24.64
2017-05-30T11:07:32.619Z,24.4
2017-05-30T11:08:32.696Z,24.12
2017-05-30T11:09:32.676Z,23.87
2017-05-30T11:10:32.705Z,23.55
2017-05-30T11:11:33.040Z,23.22
2017-05-30T11:12:33.072Z,22.98
2017-05-30T11:13:33.098Z,22.85
2017-05-30T11:14:33.127Z,22.82
2017-05-30T11:15:33.162Z,22.82
2017-05-30T11:16:32.884Z,22.57
2017-05-30T11:17:33.218Z,22.42
2017-05-30T11:18:32.949Z,22.18
2017-05-30T11:19:32.978Z,21.21
2017-05-30T11:20:33.310Z,20.26
2017-05-30T11:21:33.336Z,19.61
2017-05-30T11:22:47.984Z,19.08
2017-05-30T11:23:33.396Z,19.04
2017-05-30T11:24:33.422Z,18.92
2017-05-30T11:25:33.453Z,18.75
2017-05-30T11:26:33.481Z,18.58
2017-05-30T11:27:33.510Z,18.57
2017-05-30T11:28:33.646Z,18.58
2017-05-30T11:29:33.573Z,18.41
2017-05-30T11:32:33.350Z,18.7
2017-05-30T11:33:33.685Z,18.73
2017-05-30T11:34:48.327Z,18.84
2017-05-30T11:35:33.735Z,19
2017-05-30T11:36:33.765Z,18.95
2017-05-30T11:37:33.495Z,19
2017-05-30T11:38:48.133Z,19.19
2017-05-30T11:39:33.849Z,19.11
2017-05-30T11:40:33.878Z,19.18
2017-05-30T11:42:33.931Z,19.36
2017-05-30T11:43:33.958Z,19.37
2017-05-30T11:44:33.986Z,19.29
2017-05-30T11:45:34.017Z,19.32
2017-05-30T11:46:33.737Z,19.43
2017-05-30T11:47:34.068Z,19.39
2017-05-30T11:48:48.718Z,19.33
2017-05-30T11:50:34.151Z,19.37
2017-05-30T11:51:34.180Z,19.22
2017-05-30T11:52:34.209Z,19.32
2017-05-30T11:53:34.241Z,19.26
2017-05-30T11:54:48.881Z,19.33
2017-05-30T11:55:34.291Z,19.29
2017-05-30T11:56:34.014Z,19.32
2017-05-30T11:57:34.344Z,19.41
2017-05-30T11:58:34.373Z,19.47
2017-05-30T11:59:34.402Z,19.47
2017-05-30T12:00:34.427Z,19.48
2017-05-30T12:01:34.455Z,19.54
2017-05-30T12:02:34.685Z,19.61
2017-05-30T12:03:34.515Z,19.63
2017-05-30T12:04:34.535Z,19.62
2017-05-30T12:05:49.184Z,19.63
2017-05-30T12:06:34.592Z,19.65
2017-05-30T12:07:49.237Z,19.78
2017-05-30T12:08:34.649Z,19.77
2017-05-30T12:09:49.293Z,19.96
2017-05-30T12:10:34.705Z,19.99
2017-05-30T12:11:34.781Z,20.1
2017-05-30T12:12:34.458Z,20.11
2017-05-30T12:13:34.486Z,20.13
2017-05-30T12:14:34.510Z,20.16
2017-05-30T12:15:34.841Z,20.17
2017-05-30T12:16:34.615Z,20.11
2017-05-30T12:17:34.595Z,20.23
2017-05-30T12:19:34.951Z,20.21
2017-05-30T12:20:49.596Z,20.31
2017-05-30T12:21:34.704Z,20.24
2017-05-30T12:22:49.651Z,20.26
2017-05-30T12:23:35.063Z,20.38
2017-05-30T12:24:35.089Z,20.54
2017-05-30T12:25:34.813Z,20.61
2017-05-30T12:26:35.147Z,20.67
2017-05-30T12:27:35.171Z,20.95
2017-05-30T12:28:35.199Z,21.07
2017-05-30T12:29:35.230Z,21.16
2017-05-30T12:30:34.953Z,21.24
2017-05-30T12:31:35.288Z,21.43
2017-05-30T12:32:35.312Z,21.53
2017-05-30T12:33:35.342Z,21.61
2017-05-30T12:35:35.395Z,22
2017-05-30T12:36:35.423Z,22.1
2017-05-30T12:37:35.506Z,22.35
2017-05-30T12:38:50.095Z,22.54
2017-05-30T12:39:35.206Z,22.47
2017-05-30T12:40:35.230Z,22.57
2017-05-30T12:41:49.876Z,22.85
2017-05-30T12:42:35.644Z,22.98
2017-05-30T12:43:35.319Z,23
2017-05-30T12:44:35.649Z,23.04
2017-05-30T12:45:35.374Z,23.12
2017-05-30T12:46:35.402Z,23.02
2017-05-30T12:47:35.737Z,23.16
2017-05-30T12:48:35.763Z,23.36
2017-05-30T12:49:35.791Z,23.61
2017-05-30T12:52:35.878Z,23.95
2017-05-30T12:53:35.602Z,24
2017-05-30T12:54:35.329Z,24.1
2017-05-30T12:55:50.583Z,24.34
2017-05-30T12:56:35.999Z,24.42
2017-05-30T12:57:50.643Z,24.3
2017-05-30T12:58:36.052Z,24.42
2017-05-30T12:59:36.082Z,24.42
2017-05-30T13:00:35.809Z,24.43
2017-05-30T13:01:36.143Z,24.37
2017-05-30T13:02:35.866Z,24.25
2017-05-30T13:03:36.200Z,24.21
2017-05-30T13:04:35.930Z,24.25
2017-05-30T13:05:36.259Z,24.18
2017-05-30T13:06:36.289Z,24
2017-05-30T13:07:36.370Z,24.06
2017-05-30T13:08:36.386Z,24.12
2017-05-30T13:09:50.694Z,24.39
2017-05-30T13:10:36.104Z,24.52
2017-05-30T13:11:36.133Z,24.69
2017-05-30T13:12:36.163Z,25
2017-05-30T13:13:51.113Z,24.78
2017-05-30T13:14:36.524Z,24.61
2017-05-30T13:15:35.950Z,24.49
2017-05-30T13:16:36.587Z,24.55
2017-05-30T13:17:36.613Z,24.61
2017-05-30T13:18:36.643Z,24.4
2017-05-30T13:19:36.680Z,24.25
2017-05-30T13:20:36.704Z,24.24
2017-05-30T13:21:36.732Z,24.39
2017-05-30T13:22:36.766Z,24.43
2017-05-30T13:23:36.794Z,24.55
2017-05-30T13:24:36.829Z,24.67
2017-05-30T13:25:51.471Z,24.69
2017-05-30T13:26:36.907Z,24.84
2017-05-30T13:27:36.922Z,24.95
2017-05-30T13:28:36.940Z,24.98
2017-05-30T13:29:51.591Z,24.73
2017-05-30T13:30:36.698Z,24.76
2017-05-30T13:31:37.039Z,24.99
2017-05-30T13:32:37.059Z,25.09
2017-05-30T13:33:37.093Z,25.24
2017-05-30T13:34:37.119Z,25.17
2017-05-30T13:35:36.845Z,25.15
2017-05-30T13:36:36.873Z,25.03
2017-05-30T13:37:37.207Z,25.03
2017-05-30T13:38:37.236Z,25.1
2017-05-30T13:39:37.278Z,24.96
2017-05-30T13:40:37.304Z,24.84
2017-05-30T13:41:51.945Z,24.93
2017-05-30T13:42:37.355Z,24.87
2017-05-30T13:43:37.385Z,24.93
2017-05-30T13:44:51.734Z,25.08
2017-05-30T13:45:37.499Z,24.96
2017-05-30T13:46:37.474Z,24.78
2017-05-30T13:47:37.204Z,24.73
2017-05-30T13:48:37.230Z,24.37
2017-05-30T13:49:37.261Z,24.13
2017-05-30T13:50:37.597Z,24.13
2017-05-30T13:53:37.681Z,24.99
2017-05-30T13:54:37.711Z,25.18
2017-05-30T13:55:37.489Z,25.27
2017-05-30T13:56:37.474Z,25.25
2017-05-30T13:57:37.801Z,25.21
2017-05-30T13:58:37.833Z,25.27